createdAt,value
2023-01-09T00:01:52.799Z,44.80
2023-01-09T00:04:22.650Z,44.70
2023-01-09T00:06:54.277Z,44.90
2023-01-09T00:09:22.467Z,44.80
2023-01-09T00:11:50.183Z,44.80
2023-01-09T00:14:18.092Z,44.90
2023-01-09T00:16:45.987Z,44.80
2023-01-09T00:19:13.724Z,44.80
2023-01-09T00:21:41.401Z,44.80
2023-01-09T00:24:09.114Z,44.80
2023-01-09T00:26:36.858Z,44.90
2023-01-09T00:29:04.667Z,44.90
2023-01-09T00:31:32.474Z,45.60
2023-01-09T00:34:00.407Z,44.80
2023-01-09T00:36:28.209Z,44.80
2023-01-09T00:38:56.188Z,44.80
2023-01-09T00:41:23.984Z,44.70
2023-01-09T00:43:52.196Z,44.80
2023-01-09T00:46:20.973Z,44.80
2023-01-09T00:48:48.931Z,44.70
2023-01-09T00:51:16.722Z,44.90
2023-01-09T00:53:44.462Z,44.80
2023-01-09T00:56:12.189Z,44.80
2023-01-09T00:58:39.960Z,44.70
2023-01-09T01:01:07.851Z,44.70
2023-01-09T01:03:35.806Z,44.70
2023-01-09T01:06:21.102Z,44.70
2023-01-09T01:08:48.813Z,44.80
2023-01-09T01:11:17.221Z,44.70
2023-01-09T01:13:45.023Z,44.80
2023-01-09T01:16:12.861Z,44.80
2023-01-09T01:18:40.755Z,45.50
2023-01-09T01:21:08.814Z,44.80
2023-01-09T01:23:36.628Z,44.90
2023-01-09T01:26:04.363Z,44.80
2023-01-09T01:28:32.089Z,44.80
2023-01-09T01:30:59.905Z,44.80
2023-01-09T01:33:27.605Z,44.80
2023-01-09T01:35:55.361Z,44.80
2023-01-09T01:38:23.290Z,44.80
2023-01-09T01:40:51.030Z,44.80
2023-01-09T01:43:18.760Z,44.80
2023-01-09T01:45:46.515Z,44.90
2023-01-09T01:48:14.302Z,44.80
2023-01-09T01:50:42.080Z,44.90
2023-01-09T01:53:09.838Z,44.90
2023-01-09T01:55:37.580Z,45.00
2023-01-09T01:58:05.281Z,45.00
2023-01-09T02:09:56.331Z,45.10
2023-01-09T02:12:24.848Z,45.00
2023-01-09T02:14:52.698Z,45.00
2023-01-09T02:17:20.480Z,44.90
2023-01-09T02:19:48.242Z,44.90
2023-01-09T02:22:15.977Z,45.10
2023-01-09T02:24:43.914Z,45.00
2023-01-09T02:27:11.660Z,45.10
2023-01-09T02:29:39.548Z,45.10
2023-01-09T02:32:07.376Z,45.10
2023-01-09T02:34:35.141Z,45.10
2023-01-09T02:37:03.044Z,45.10
2023-01-09T02:39:31.374Z,45.10
2023-01-09T02:41:59.584Z,45.10
2023-01-09T02:44:28.748Z,45.00
2023-01-09T02:46:56.523Z,45.20
2023-01-09T02:49:24.322Z,45.10
2023-01-09T02:51:52.144Z,45.10
2023-01-09T02:54:19.931Z,45.20
2023-01-09T02:56:47.739Z,45.20
2023-01-09T02:59:15.709Z,45.30
2023-01-09T03:01:44.887Z,45.20
2023-01-09T03:04:12.749Z,45.30
2023-01-09T03:06:40.485Z,45.30
2023-01-09T03:09:08.372Z,45.30
2023-01-09T03:11:36.193Z,45.40
2023-01-09T03:14:03.957Z,45.40
2023-01-09T03:16:31.764Z,45.50
2023-01-09T03:18:59.582Z,45.40
2023-01-09T03:21:27.374Z,45.40
2023-01-09T03:23:55.132Z,45.50
2023-01-09T03:26:23.022Z,45.50
2023-01-09T03:28:50.830Z,45.50
2023-01-09T03:31:18.666Z,45.50
2023-01-09T03:33:46.484Z,45.50
2023-01-09T03:36:14.297Z,45.50
2023-01-09T03:38:42.141Z,45.50
2023-01-09T03:41:09.991Z,45.40
2023-01-09T03:43:37.731Z,45.50
2023-01-09T03:46:05.572Z,45.50
2023-01-09T03:48:33.492Z,45.50
2023-01-09T03:51:01.369Z,45.50
2023-01-09T03:53:29.141Z,45.50
2023-01-09T03:55:57.081Z,45.60
2023-01-09T03:58:24.868Z,45.60
2023-01-09T04:00:52.799Z,45.60
2023-01-09T04:03:20.709Z,45.60
2023-01-09T04:05:48.533Z,45.60
2023-01-09T04:08:16.348Z,45.50
2023-01-09T04:10:44.215Z,45.50
2023-01-09T04:13:12.075Z,45.50
2023-01-09T04:15:40.159Z,45.50
2023-01-09T04:18:07.973Z,45.50
2023-01-09T04:20:35.777Z,45.60
2023-01-09T04:23:03.531Z,45.70
2023-01-09T04:25:31.415Z,45.60
2023-01-09T04:27:59.301Z,45.60
2023-01-09T04:30:27.136Z,45.60
2023-01-09T04:32:54.895Z,45.70
2023-01-09T04:35:24.251Z,45.80
2023-01-09T04:37:52.087Z,45.80
2023-01-09T04:40:19.932Z,45.70
2023-01-09T04:42:47.809Z,45.70
2023-01-09T04:45:17.263Z,45.70
2023-01-09T04:47:45.720Z,45.70
2023-01-09T04:50:13.580Z,45.70
2023-01-09T04:52:41.358Z,45.80
2023-01-09T04:55:09.133Z,45.80
2023-01-09T04:57:36.870Z,45.80
2023-01-09T05:02:57.066Z,45.80
2023-01-09T05:05:24.862Z,45.80
2023-01-09T05:07:52.678Z,45.80
2023-01-09T05:10:20.466Z,45.80
2023-01-09T05:12:48.234Z,45.80
2023-01-09T05:15:15.989Z,45.80
2023-01-09T05:17:43.986Z,45.90
2023-01-09T05:20:11.807Z,46.00
2023-01-09T05:22:39.598Z,46.10
2023-01-09T05:25:07.405Z,46.20
2023-01-09T05:27:35.210Z,46.20
2023-01-09T05:30:02.995Z,46.40
2023-01-09T05:32:30.756Z,46.50
2023-01-09T05:34:58.628Z,46.60
2023-01-09T05:37:26.387Z,46.50
2023-01-09T05:39:54.207Z,46.60
2023-01-09T05:42:22.181Z,46.70
2023-01-09T05:44:50.007Z,46.60
2023-01-09T05:47:17.773Z,46.70
2023-01-09T05:49:45.524Z,46.80
2023-01-09T05:52:13.276Z,46.80
2023-01-09T05:54:41.076Z,46.70
2023-01-09T05:57:08.843Z,46.80
2023-01-09T05:59:36.669Z,46.80
2023-01-09T06:02:04.540Z,46.80
2023-01-09T06:04:32.763Z,46.70
2023-01-09T06:07:00.542Z,46.70
2023-01-09T06:09:28.340Z,46.70
2023-01-09T06:11:56.099Z,46.70
2023-01-09T06:14:23.925Z,46.70
2023-01-09T06:16:51.724Z,46.60
2023-01-09T06:19:19.548Z,46.60
2023-01-09T06:21:47.306Z,46.60
2023-01-09T06:24:15.078Z,46.60
2023-01-09T06:26:42.845Z,46.60
2023-01-09T06:29:10.641Z,46.60
2023-01-09T06:31:38.452Z,46.60
2023-01-09T06:34:06.259Z,46.60
2023-01-09T06:36:33.992Z,46.60
2023-01-09T06:39:01.782Z,46.50
2023-01-09T06:41:29.586Z,46.50
2023-01-09T06:43:57.353Z,46.40
2023-01-09T06:46:25.155Z,46.50
2023-01-09T06:48:52.930Z,46.50
2023-01-09T06:51:20.671Z,46.50
2023-01-09T06:53:48.390Z,46.50
2023-01-09T06:56:16.102Z,46.60
2023-01-09T06:58:43.841Z,46.60
2023-01-09T07:01:11.840Z,46.50
2023-01-09T07:03:39.609Z,46.50
2023-01-09T07:06:07.294Z,46.40
2023-01-09T07:08:35.421Z,46.40
2023-01-09T07:11:03.164Z,46.60
2023-01-09T07:13:30.932Z,46.50
2023-01-09T07:15:58.694Z,46.50
2023-01-09T07:18:26.477Z,46.50
2023-01-09T07:20:54.171Z,46.60
2023-01-09T07:23:21.898Z,46.40
2023-01-09T07:25:49.731Z,46.50
2023-01-09T07:28:17.474Z,46.50
2023-01-09T07:30:45.214Z,46.50
2023-01-09T07:33:12.929Z,46.50
2023-01-09T07:35:40.696Z,46.50
2023-01-09T07:38:08.489Z,46.50
2023-01-09T07:40:36.238Z,46.50
2023-01-09T07:43:03.983Z,46.50
2023-01-09T07:45:31.791Z,46.60
2023-01-09T07:47:59.489Z,46.50
2023-01-09T07:50:27.241Z,46.50
2023-01-09T07:52:54.968Z,46.50
2023-01-09T07:55:22.728Z,46.50
2023-01-09T07:57:50.958Z,46.60
2023-01-09T08:00:18.702Z,46.50
2023-01-09T08:02:46.457Z,47.20
2023-01-09T08:05:15.966Z,46.50
2023-01-09T08:07:43.740Z,46.40
2023-01-09T08:10:11.610Z,46.50
2023-01-09T08:12:43.096Z,46.40
2023-01-09T08:15:10.830Z,46.40
2023-01-09T08:17:38.632Z,46.40
2023-01-09T08:20:06.328Z,46.50
2023-01-09T08:22:34.110Z,46.50
2023-01-09T08:25:01.820Z,46.50
2023-01-09T08:27:29.548Z,46.60
2023-01-09T08:29:57.286Z,46.50
2023-01-09T08:32:25.265Z,46.50
2023-01-09T08:34:53.088Z,46.50
2023-01-09T08:37:20.918Z,46.50
2023-01-09T08:39:48.779Z,46.50
2023-01-09T08:42:34.420Z,46.50
2023-01-09T08:45:19.612Z,46.50
2023-01-09T08:47:47.313Z,46.60
2023-01-09T08:50:15.106Z,46.60
2023-01-09T08:52:42.866Z,46.50
2023-01-09T08:55:10.611Z,46.60
2023-01-09T08:57:38.315Z,46.30
2023-01-09T09:00:06.386Z,46.30
2023-01-09T09:02:34.123Z,46.30
2023-01-09T09:05:02.064Z,46.10
2023-01-09T09:07:29.862Z,46.40
2023-01-09T09:09:57.589Z,46.40
2023-01-09T09:12:25.353Z,46.40
2023-01-09T09:15:10.553Z,46.40
2023-01-09T09:17:38.372Z,46.40
2023-01-09T09:20:06.110Z,46.30
2023-01-09T09:22:33.874Z,46.30
2023-01-09T09:25:02.552Z,46.20
2023-01-09T09:27:30.269Z,46.40
2023-01-09T09:29:57.974Z,46.40
2023-01-09T09:32:25.734Z,46.40
2023-01-09T09:34:53.519Z,46.30
2023-01-09T09:37:21.244Z,46.40
2023-01-09T09:39:48.992Z,46.40
2023-01-09T09:42:34.078Z,46.50
2023-01-09T09:45:01.859Z,46.50
2023-01-09T09:47:29.629Z,46.40
2023-01-09T09:49:57.370Z,46.50
2023-01-09T09:52:25.347Z,46.40
2023-01-09T09:54:53.033Z,46.40
2023-01-09T09:57:20.783Z,46.50
2023-01-09T09:59:51.279Z,46.30
2023-01-09T10:02:19.066Z,46.50
2023-01-09T10:04:46.913Z,46.50
2023-01-09T10:07:14.680Z,46.50
2023-01-09T10:09:42.439Z,46.50
2023-01-09T10:12:10.201Z,46.60
2023-01-09T10:14:37.966Z,46.40
2023-01-09T10:17:05.718Z,46.40
2023-01-09T10:19:33.452Z,46.60
2023-01-09T10:22:01.302Z,46.50
2023-01-09T10:24:29.028Z,46.40
2023-01-09T10:26:57.215Z,46.60
2023-01-09T10:29:25.004Z,46.60
2023-01-09T10:31:52.731Z,46.60
2023-01-09T10:34:20.502Z,46.60
2023-01-09T10:36:48.510Z,46.60
2023-01-09T10:39:16.250Z,46.60
2023-01-09T10:41:43.954Z,46.60
2023-01-09T10:44:11.746Z,46.60
2023-01-09T10:46:40.254Z,46.60
2023-01-09T10:49:08.065Z,46.60
2023-01-09T10:51:35.795Z,46.60
2023-01-09T10:54:03.659Z,46.60
2023-01-09T10:56:31.399Z,46.60
2023-01-09T10:58:59.396Z,46.60
2023-01-09T11:01:27.114Z,46.60
2023-01-09T11:03:54.908Z,46.70
2023-01-09T11:06:22.659Z,46.70
2023-01-09T11:08:50.781Z,46.70
2023-01-09T11:11:18.535Z,46.70
2023-01-09T11:13:48.582Z,46.70
2023-01-09T11:16:16.309Z,46.70
2023-01-09T11:18:44.033Z,46.70
2023-01-09T11:21:11.759Z,46.70
2023-01-09T11:23:39.475Z,46.70
2023-01-09T11:26:07.904Z,46.80
2023-01-09T11:28:36.522Z,46.70
2023-01-09T11:31:04.371Z,46.70
2023-01-09T11:33:32.109Z,46.60
2023-01-09T11:35:59.834Z,46.70
2023-01-09T11:38:27.601Z,46.60
2023-01-09T11:40:55.377Z,46.80
2023-01-09T11:43:23.164Z,46.70
2023-01-09T11:46:00.541Z,46.80
2023-01-09T11:48:29.737Z,46.70
2023-01-09T11:50:57.545Z,46.70
2023-01-09T11:53:25.410Z,46.70
2023-01-09T11:55:53.254Z,46.70
2023-01-09T11:58:21.121Z,46.60
2023-01-09T12:00:48.887Z,46.60
2023-01-09T12:03:16.710Z,46.60
2023-01-09T12:05:44.463Z,46.60
2023-01-09T12:08:12.202Z,46.70
2023-01-09T12:10:39.966Z,46.70
2023-01-09T12:13:07.695Z,46.60
2023-01-09T12:15:35.422Z,46.60
2023-01-09T12:18:03.187Z,46.60
2023-01-09T12:20:30.935Z,46.60
2023-01-09T12:22:58.685Z,46.50
2023-01-09T12:25:29.112Z,46.50
2023-01-09T12:27:56.850Z,46.40
2023-01-09T12:30:26.249Z,46.50
2023-01-09T12:32:54.033Z,46.40
2023-01-09T12:35:21.733Z,46.40
2023-01-09T12:37:49.475Z,46.40
2023-01-09T12:40:17.214Z,46.40
2023-01-09T12:42:45.117Z,46.40
2023-01-09T12:45:12.876Z,46.40
2023-01-09T12:47:40.633Z,46.40
2023-01-09T12:52:37.331Z,46.50
2023-01-09T12:55:05.260Z,46.40
2023-01-09T12:57:33.075Z,46.50
2023-01-09T13:00:00.847Z,46.60
2023-01-09T13:02:28.704Z,46.40
2023-01-09T13:04:56.537Z,46.60
2023-01-09T13:07:24.341Z,46.60
2023-01-09T13:09:52.117Z,46.60
2023-01-09T13:12:21.895Z,46.60
2023-01-09T13:14:49.732Z,46.70
2023-01-09T13:17:17.472Z,46.60
2023-01-09T13:19:46.257Z,46.60
2023-01-09T13:22:14.667Z,46.60
2023-01-09T13:24:43.165Z,46.70
2023-01-09T13:27:10.965Z,46.50
2023-01-09T13:29:38.830Z,46.60
2023-01-09T13:32:07.723Z,46.60
2023-01-09T13:34:36.053Z,46.40
2023-01-09T13:37:03.874Z,46.60
2023-01-09T13:39:32.313Z,46.60
2023-01-09T13:42:17.733Z,46.40
2023-01-09T13:44:45.534Z,46.40
2023-01-09T13:47:13.371Z,46.40
2023-01-09T13:49:41.157Z,46.40
2023-01-09T13:52:08.957Z,46.40
2023-01-09T13:54:36.756Z,46.40
2023-01-09T13:57:04.565Z,46.40
2023-01-09T13:59:32.320Z,46.40
2023-01-09T14:02:00.113Z,46.40
2023-01-09T14:04:28.014Z,46.50
2023-01-09T14:06:55.866Z,46.40
2023-01-09T14:09:23.696Z,46.30
2023-01-09T14:11:51.498Z,46.10
2023-01-09T14:14:19.282Z,46.30
2023-01-09T14:16:47.142Z,46.30
2023-01-09T14:19:14.938Z,46.80
2023-01-09T14:21:42.733Z,46.20
2023-01-09T14:24:10.569Z,46.10
2023-01-09T14:26:38.387Z,46.20
2023-01-09T14:29:06.240Z,46.70
2023-01-09T14:31:34.308Z,46.00
2023-01-09T14:34:23.588Z,46.00
2023-01-09T14:36:49.968Z,46.00
2023-01-09T14:39:17.787Z,46.20
2023-01-09T14:42:05.847Z,46.20
2023-01-09T14:44:33.741Z,46.30
2023-01-09T14:47:01.574Z,46.70
2023-01-09T14:49:29.341Z,46.00
2023-01-09T14:51:57.113Z,38.90
2023-01-09T14:54:24.840Z,32.10
2023-01-09T14:56:52.598Z,27.60
2023-01-09T14:59:20.344Z,25.00
2023-01-09T15:01:49.417Z,23.10
2023-01-09T15:04:17.256Z,22.00
2023-01-09T15:06:45.075Z,21.10
2023-01-09T15:09:12.879Z,20.50
2023-01-09T15:11:40.653Z,19.90
2023-01-09T15:14:10.315Z,19.80
2023-01-09T15:16:38.147Z,19.80
2023-01-09T15:19:06.813Z,19.90
2023-01-09T15:21:34.604Z,20.30
2023-01-09T15:24:02.536Z,20.70
2023-01-09T15:26:30.407Z,21.30
2023-01-09T15:28:58.226Z,22.00
2023-01-09T15:31:26.023Z,22.80
2023-01-09T15:33:54.156Z,23.50
2023-01-09T15:36:22.088Z,24.20
2023-01-09T15:38:49.911Z,24.90
2023-01-09T15:41:39.744Z,25.60
2023-01-09T15:44:07.496Z,26.40
2023-01-09T15:46:35.327Z,27.20
2023-01-09T15:49:03.108Z,27.80
2023-01-09T15:51:30.895Z,28.50
2023-01-09T15:54:00.827Z,29.60
2023-01-09T15:56:30.660Z,29.60
2023-01-09T15:58:58.519Z,30.40
2023-01-09T16:01:26.415Z,30.80
2023-01-09T16:03:54.343Z,31.50
2023-01-09T16:06:22.205Z,32.30
2023-01-09T16:08:52.330Z,33.10
2023-01-09T16:11:20.176Z,33.50
2023-01-09T16:13:48.017Z,34.00
2023-01-09T16:16:15.882Z,34.50
2023-01-09T16:18:43.734Z,35.00
2023-01-09T16:21:11.489Z,35.40
2023-01-09T16:23:39.274Z,35.80
2023-01-09T16:26:07.138Z,36.30
2023-01-09T16:28:34.949Z,36.40
2023-01-09T16:31:02.877Z,37.40
2023-01-09T16:33:30.688Z,37.70
2023-01-09T16:35:59.611Z,38.40
2023-01-09T16:38:27.524Z,38.70
2023-01-09T16:41:15.847Z,38.80
2023-01-09T16:43:42.605Z,38.80
2023-01-09T16:46:10.432Z,39.10
2023-01-09T16:48:38.955Z,39.30
2023-01-09T16:51:06.770Z,40.00
2023-01-09T16:53:34.566Z,38.60
2023-01-09T16:56:02.758Z,36.20
2023-01-09T16:58:30.954Z,33.50
2023-01-09T17:00:58.752Z,30.80
2023-01-09T17:03:26.525Z,28.80
2023-01-09T17:05:54.419Z,27.70
2023-01-09T17:08:22.523Z,27.10
2023-01-09T17:10:50.322Z,27.00
2023-01-09T17:13:18.114Z,27.20
2023-01-09T17:15:45.896Z,27.50
2023-01-09T17:18:13.993Z,27.90
2023-01-09T17:20:41.781Z,28.40
2023-01-09T17:23:09.645Z,28.90
2023-01-09T17:25:55.030Z,29.50
2023-01-09T17:28:36.028Z,30.10
2023-01-09T17:31:06.380Z,30.60
2023-01-09T17:33:34.203Z,31.30
2023-01-09T17:36:02.012Z,32.10
2023-01-09T17:38:35.478Z,32.70
2023-01-09T17:41:03.280Z,33.40
2023-01-09T17:43:32.215Z,34.00
2023-01-09T17:46:00.266Z,34.70
2023-01-09T17:48:28.134Z,35.20
2023-01-09T17:50:55.952Z,35.70
2023-01-09T17:53:25.350Z,36.10
2023-01-09T17:55:53.122Z,36.70
2023-01-09T17:58:20.944Z,37.10
2023-01-09T18:00:48.752Z,37.50
2023-01-09T18:03:16.494Z,37.80
2023-01-09T18:05:44.362Z,38.30
2023-01-09T18:08:12.665Z,38.50
2023-01-09T18:10:40.548Z,39.00
2023-01-09T18:13:08.899Z,39.30
2023-01-09T18:15:37.241Z,39.60
2023-01-09T18:18:05.023Z,40.20
2023-01-09T18:20:32.885Z,40.00
2023-01-09T18:23:00.641Z,40.10
2023-01-09T18:25:28.418Z,39.90
2023-01-09T18:27:56.372Z,40.50
2023-01-09T18:30:24.139Z,40.50
2023-01-09T18:32:52.006Z,40.70
2023-01-09T18:35:19.803Z,40.80
2023-01-09T18:37:48.269Z,41.00
2023-01-09T18:40:16.055Z,41.10
2023-01-09T18:42:45.574Z,41.20
2023-01-09T18:45:13.351Z,41.40
2023-01-09T18:47:41.148Z,41.50
2023-01-09T18:50:09.313Z,41.60
2023-01-09T18:52:37.055Z,41.80
2023-01-09T18:55:04.838Z,42.20
2023-01-09T18:57:32.647Z,40.40
2023-01-09T19:00:00.398Z,37.20
2023-01-09T19:02:28.134Z,32.70
2023-01-09T19:04:55.881Z,28.90
2023-01-09T19:07:28.858Z,26.40
2023-01-09T19:09:56.722Z,24.80
2023-01-09T19:12:24.401Z,23.80
2023-01-09T19:14:53.049Z,23.40
2023-01-09T19:17:20.814Z,23.40
2023-01-09T19:19:49.347Z,23.70
2023-01-09T19:22:17.062Z,24.20
2023-01-09T19:24:44.751Z,24.70
2023-01-09T19:27:12.464Z,25.30
2023-01-09T19:29:40.228Z,25.80
2023-01-09T19:32:08.643Z,26.50
2023-01-09T19:34:36.595Z,27.10
2023-01-09T19:37:04.590Z,27.70
2023-01-09T19:39:32.602Z,28.30
2023-01-09T19:42:00.345Z,29.00
2023-01-09T19:44:28.137Z,29.50
2023-01-09T19:46:55.963Z,30.50
2023-01-09T19:49:24.500Z,30.60
2023-01-09T19:51:55.130Z,31.30
2023-01-09T19:54:22.847Z,32.00
2023-01-09T19:56:50.840Z,32.60
2023-01-09T19:59:22.346Z,33.20
2023-01-09T20:01:50.080Z,33.70
2023-01-09T20:04:18.709Z,34.20
2023-01-09T20:06:46.541Z,34.80
2023-01-09T20:09:14.285Z,35.30
2023-01-09T20:11:42.162Z,35.80
2023-01-09T20:14:09.925Z,36.10
2023-01-09T20:16:37.706Z,37.20
2023-01-09T20:19:07.607Z,36.90
2023-01-09T20:21:35.412Z,37.30
2023-01-09T20:24:05.251Z,37.70
2023-01-09T20:26:33.064Z,38.00
2023-01-09T20:29:00.855Z,38.80
2023-01-09T20:31:28.831Z,38.50
2023-01-09T20:33:56.553Z,38.70
2023-01-09T20:36:27.594Z,38.80
2023-01-09T20:38:55.446Z,39.00
2023-01-09T20:41:26.229Z,39.30
2023-01-09T20:43:55.601Z,39.50
2023-01-09T20:46:23.656Z,39.70
2023-01-09T20:48:51.448Z,39.90
2023-01-09T20:51:19.295Z,40.00
2023-01-09T20:53:47.122Z,40.20
2023-01-09T20:56:14.839Z,40.50
2023-01-09T20:58:42.881Z,40.70
2023-01-09T21:01:10.698Z,40.70
2023-01-09T21:03:38.496Z,40.90
2023-01-09T21:06:06.694Z,41.10
2023-01-09T21:08:34.717Z,41.30
2023-01-09T21:11:02.445Z,41.40
2023-01-09T21:13:30.245Z,41.60
2023-01-09T21:15:58.018Z,41.80
2023-01-09T21:18:25.821Z,41.80
2023-01-09T21:20:53.517Z,42.10
2023-01-09T21:23:22.141Z,42.20
2023-01-09T21:25:49.854Z,42.30
2023-01-09T21:28:18.685Z,42.50
2023-01-09T21:30:49.574Z,42.50
2023-01-09T21:33:19.798Z,42.70
2023-01-09T21:35:47.505Z,42.70
2023-01-09T21:38:15.257Z,42.90
2023-01-09T21:40:43.710Z,42.90
2023-01-09T21:43:29.066Z,43.00
2023-01-09T21:46:14.523Z,43.10
2023-01-09T21:48:42.272Z,43.20
2023-01-09T21:51:10.022Z,43.10
2023-01-09T21:53:37.765Z,43.20
2023-01-09T21:56:05.467Z,43.10
2023-01-09T21:58:33.266Z,43.20
2023-01-09T22:01:03.410Z,43.30
2023-01-09T22:03:31.230Z,43.40
2023-01-09T22:05:59.050Z,43.40
2023-01-09T22:08:26.809Z,43.30
2023-01-09T22:10:54.650Z,43.40
2023-01-09T22:13:22.386Z,43.50
2023-01-09T22:15:50.140Z,43.50
2023-01-09T22:18:17.845Z,43.60
2023-01-09T22:20:45.618Z,43.60
2023-01-09T22:23:13.319Z,43.70
2023-01-09T22:25:42.010Z,43.60
2023-01-09T22:28:10.235Z,43.70
2023-01-09T22:30:38.265Z,43.70
2023-01-09T22:33:07.453Z,43.80
2023-01-09T22:35:35.261Z,43.70
2023-01-09T22:38:03.029Z,43.80
2023-01-09T22:40:30.925Z,43.80
2023-01-09T22:42:58.710Z,43.90
2023-01-09T22:45:26.448Z,44.00
2023-01-09T22:47:54.283Z,43.90
2023-01-09T22:50:22.051Z,43.90
2023-01-09T22:52:50.045Z,43.90
2023-01-09T22:55:17.834Z,44.00
2023-01-09T22:57:45.750Z,43.80
2023-01-09T23:00:13.534Z,44.00
2023-01-09T23:02:41.468Z,43.90
2023-01-09T23:05:09.368Z,43.90
2023-01-09T23:07:37.451Z,43.80
2023-01-09T23:10:05.737Z,43.80
2023-01-09T23:12:33.507Z,43.90
2023-01-09T23:15:01.559Z,44.00
2023-01-09T23:17:29.323Z,44.00
2023-01-09T23:19:57.107Z,44.00
2023-01-09T23:22:25.947Z,44.10
2023-01-09T23:24:53.766Z,44.70
2023-01-09T23:27:21.631Z,44.00
2023-01-09T23:29:49.431Z,44.10
2023-01-09T23:32:17.234Z,44.30
2023-01-09T23:34:46.972Z,44.30
2023-01-09T23:37:14.804Z,44.30
2023-01-09T23:39:42.597Z,44.40
2023-01-09T23:42:28.089Z,44.40
2023-01-09T23:44:56.131Z,44.50
2023-01-09T23:47:23.968Z,44.50
2023-01-09T23:49:51.674Z,44.50
2023-01-09T23:52:19.446Z,44.50
2023-01-09T23:54:47.157Z,44.50
2023-01-09T23:57:14.861Z,44.50
2023-01-09T23:59:42.612Z,44.60
